createdAt,value
2022-12-08T00:01:35.843Z,18.33
2022-12-08T00:04:05.462Z,18.85
2022-12-08T00:06:44.674Z,17.05
2022-12-08T00:09:23.761Z,20.83
2022-12-08T00:11:52.323Z,18.40
2022-12-08T00:14:23.191Z,16.90
2022-12-08T00:16:51.817Z,16.23
2022-12-08T00:19:19.983Z,14.40
2022-12-08T00:21:48.399Z,14.70
2022-12-08T00:24:16.738Z,14.65
2022-12-08T00:26:45.412Z,19.15
2022-12-08T00:29:17.588Z,37.70
2022-12-08T00:31:46.476Z,23.33
2022-12-08T00:34:15.804Z,17.75
2022-12-08T00:36:44.702Z,14.70
2022-12-08T00:39:14.671Z,14.82
2022-12-08T00:41:43.097Z,17.00
2022-12-08T00:44:13.739Z,12.70
2022-12-08T00:46:42.767Z,11.82
2022-12-08T00:49:11.077Z,11.73
2022-12-08T00:51:39.677Z,10.55
2022-12-08T00:54:08.838Z,11.15
2022-12-08T00:56:38.535Z,12.40
2022-12-08T00:59:08.185Z,15.05
2022-12-08T01:01:37.254Z,14.82
2022-12-08T01:04:07.629Z,22.02
2022-12-08T01:06:36.826Z,40.85
2022-12-08T01:09:07.436Z,53.83
2022-12-08T01:11:37.177Z,47.80
2022-12-08T01:14:05.875Z,44.78
2022-12-08T01:16:36.764Z,33.10
2022-12-08T01:19:05.645Z,42.22
2022-12-08T01:21:33.912Z,45.72
2022-12-08T01:24:02.453Z,53.50
2022-12-08T01:26:31.034Z,60.53
2022-12-08T01:28:59.326Z,59.30
2022-12-08T01:31:28.563Z,53.22
2022-12-08T01:33:56.967Z,55.25
2022-12-08T01:36:33.299Z,54.75
2022-12-08T01:39:02.547Z,54.03
2022-12-08T01:41:33.866Z,60.20
2022-12-08T01:44:08.067Z,52.58
2022-12-08T01:46:38.601Z,41.67
2022-12-08T01:49:14.131Z,35.35
2022-12-08T01:51:57.558Z,36.42
2022-12-08T01:54:29.680Z,31.70
2022-12-08T01:57:10.651Z,39.95
2022-12-08T01:59:50.424Z,36.17
2022-12-08T02:02:37.099Z,30.30
2022-12-08T02:05:07.673Z,29.60
2022-12-08T02:07:36.957Z,27.25
2022-12-08T02:10:06.328Z,33.88
2022-12-08T02:12:34.948Z,35.55
2022-12-08T02:15:05.320Z,35.47
2022-12-08T02:17:43.342Z,42.13
2022-12-08T02:20:31.938Z,43.78
2022-12-08T02:23:11.928Z,46.33
2022-12-08T02:25:58.396Z,45.15
2022-12-08T02:28:56.943Z,45.30
2022-12-08T02:31:43.911Z,28.95
2022-12-08T02:34:35.685Z,21.98
2022-12-08T02:37:33.395Z,21.25
2022-12-08T02:40:10.161Z,23.08
2022-12-08T02:43:02.875Z,23.65
2022-12-08T02:45:40.270Z,24.10
2022-12-08T02:48:10.333Z,24.80
2022-12-08T02:50:38.653Z,25.92
2022-12-08T02:55:55.116Z,26.55
2022-12-08T02:58:26.488Z,29.92
2022-12-08T03:01:07.056Z,27.40
2022-12-08T03:03:55.610Z,27.17
2022-12-08T03:06:52.365Z,23.33
2022-12-08T03:09:50.448Z,23.75
2022-12-08T03:12:21.647Z,22.90
2022-12-08T03:14:54.184Z,24.47
2022-12-08T03:17:25.307Z,22.02
2022-12-08T03:19:55.297Z,22.38
2022-12-08T03:22:25.969Z,23.15
2022-12-08T03:24:55.944Z,22.17
2022-12-08T03:27:32.024Z,23.48
2022-12-08T03:30:02.222Z,20.75
2022-12-08T03:33:02.325Z,19.20
2022-12-08T03:35:39.959Z,19.20
2022-12-08T03:38:13.895Z,22.95
2022-12-08T03:40:43.396Z,21.95
2022-12-08T03:43:11.850Z,22.23
2022-12-08T03:45:40.200Z,19.33
2022-12-08T03:48:08.435Z,20.10
2022-12-08T03:50:36.748Z,20.52
2022-12-08T03:53:05.050Z,20.98
2022-12-08T03:55:33.141Z,21.45
2022-12-08T03:58:01.308Z,20.42
2022-12-08T04:00:29.661Z,20.77
2022-12-08T04:02:57.999Z,19.00
2022-12-08T04:05:26.762Z,20.55
2022-12-08T04:07:58.445Z,22.23
2022-12-08T04:10:27.054Z,19.98
2022-12-08T04:12:55.149Z,20.92
2022-12-08T04:15:23.610Z,19.83
2022-12-08T04:17:51.999Z,21.52
2022-12-08T04:20:20.293Z,23.27
2022-12-08T04:22:48.574Z,22.77
2022-12-08T04:25:16.925Z,23.50
2022-12-08T04:27:45.178Z,24.10
2022-12-08T04:30:13.482Z,26.00
2022-12-08T04:32:47.245Z,23.60
2022-12-08T04:35:15.834Z,25.13
2022-12-08T04:37:44.572Z,24.50
2022-12-08T04:40:13.783Z,25.23
2022-12-08T04:42:42.045Z,24.80
2022-12-08T04:45:16.509Z,25.02
2022-12-08T04:47:44.730Z,24.70
2022-12-08T04:50:12.933Z,24.10
2022-12-08T04:52:41.299Z,25.30
2022-12-08T04:55:09.689Z,24.83
2022-12-08T04:57:37.992Z,25.23
2022-12-08T05:00:07.382Z,30.52
2022-12-08T05:02:36.068Z,24.65
2022-12-08T05:05:05.222Z,26.48
2022-12-08T05:07:33.857Z,27.52
2022-12-08T05:10:02.447Z,27.17
2022-12-08T05:12:31.175Z,28.30
2022-12-08T05:14:59.321Z,26.38
2022-12-08T05:17:27.640Z,24.40
2022-12-08T05:19:56.107Z,25.33
2022-12-08T05:22:24.244Z,27.90
2022-12-08T05:24:52.622Z,24.42
2022-12-08T05:27:20.960Z,24.20
2022-12-08T05:29:49.377Z,24.00
2022-12-08T05:32:17.796Z,24.83
2022-12-08T05:34:46.165Z,23.77
2022-12-08T05:37:14.505Z,26.50
2022-12-08T05:39:42.848Z,25.30
2022-12-08T05:42:11.218Z,26.75
2022-12-08T05:44:39.612Z,26.42
2022-12-08T05:47:07.797Z,25.77
2022-12-08T05:49:36.670Z,27.60
2022-12-08T05:52:05.287Z,26.95
2022-12-08T05:54:33.540Z,25.52
2022-12-08T05:57:01.893Z,27.90
2022-12-08T05:59:30.140Z,28.92
2022-12-08T06:01:58.504Z,29.88
2022-12-08T06:04:26.973Z,28.45
2022-12-08T06:06:55.435Z,29.52
2022-12-08T06:09:23.800Z,27.33
2022-12-08T06:11:52.115Z,26.80
2022-12-08T06:14:20.342Z,26.75
2022-12-08T06:16:49.029Z,23.00
2022-12-08T06:19:17.661Z,22.25
2022-12-08T06:21:46.277Z,22.52
2022-12-08T06:24:15.358Z,21.08
2022-12-08T06:26:43.910Z,21.25
2022-12-08T06:29:12.060Z,24.20
2022-12-08T06:31:41.413Z,22.55
2022-12-08T06:34:09.795Z,22.13
2022-12-08T06:36:37.986Z,24.30
2022-12-08T06:39:06.368Z,24.38
2022-12-08T06:41:34.941Z,23.67
2022-12-08T06:44:03.293Z,23.83
2022-12-08T06:46:31.514Z,23.85
2022-12-08T06:48:59.978Z,31.45
2022-12-08T06:51:28.280Z,39.65
2022-12-08T06:53:56.364Z,35.05
2022-12-08T06:56:24.617Z,51.85
2022-12-08T06:58:53.269Z,46.28
2022-12-08T07:01:22.298Z,35.95
2022-12-08T07:03:51.067Z,40.25
2022-12-08T07:06:25.360Z,27.65
2022-12-08T07:09:03.053Z,26.88
2022-12-08T07:11:41.115Z,26.38
2022-12-08T07:14:09.895Z,27.38
2022-12-08T07:16:38.235Z,26.15
2022-12-08T07:20:17.674Z,25.63
2022-12-08T07:22:53.133Z,21.92
2022-12-08T07:25:21.908Z,24.35
2022-12-08T07:27:51.717Z,24.77
2022-12-08T07:30:21.344Z,25.02
2022-12-08T07:32:49.672Z,23.90
2022-12-08T07:35:18.513Z,22.35
2022-12-08T07:37:47.484Z,19.83
2022-12-08T07:40:16.504Z,17.52
2022-12-08T07:42:45.178Z,19.17
2022-12-08T07:45:14.593Z,19.25
2022-12-08T07:47:42.963Z,17.52
2022-12-08T07:50:11.304Z,16.00
2022-12-08T07:52:41.026Z,14.38
2022-12-08T07:55:10.026Z,14.45
2022-12-08T07:57:38.493Z,14.20
2022-12-08T08:00:08.864Z,14.27
2022-12-08T08:02:40.558Z,13.48
2022-12-08T08:05:09.452Z,11.80
2022-12-08T08:07:38.068Z,13.85
2022-12-08T08:10:10.042Z,12.45
2022-12-08T08:15:21.631Z,13.13
2022-12-08T08:17:54.341Z,12.48
2022-12-08T08:20:23.176Z,12.25
2022-12-08T08:22:55.501Z,13.13
2022-12-08T08:25:24.324Z,13.77
2022-12-08T08:27:52.915Z,10.50
2022-12-08T08:30:21.442Z,10.88
2022-12-08T08:32:52.192Z,12.02
2022-12-08T08:37:49.540Z,9.70
2022-12-08T08:40:19.041Z,9.95
2022-12-08T08:42:47.254Z,9.30
2022-12-08T08:45:15.494Z,9.63
2022-12-08T08:47:43.938Z,9.68
2022-12-08T08:50:13.759Z,11.38
2022-12-08T08:52:42.482Z,10.77
2022-12-08T08:55:11.678Z,7.88
2022-12-08T08:57:40.070Z,10.25
2022-12-08T09:00:09.777Z,9.80
2022-12-08T09:02:39.708Z,9.05
2022-12-08T09:05:08.294Z,10.32
2022-12-08T09:07:36.588Z,10.05
2022-12-08T09:10:05.895Z,7.82
2022-12-08T09:12:34.490Z,10.73
2022-12-08T09:15:02.804Z,8.57
2022-12-08T09:17:32.254Z,8.35
2022-12-08T09:20:00.771Z,9.65
2022-12-08T09:22:28.865Z,7.47
2022-12-08T09:24:58.055Z,7.45
2022-12-08T09:27:26.332Z,8.20
2022-12-08T09:29:57.041Z,6.80
2022-12-08T09:32:25.535Z,6.75
2022-12-08T09:34:55.023Z,7.55
2022-12-08T09:37:24.519Z,8.43
2022-12-08T09:39:53.078Z,6.82
2022-12-08T09:42:49.997Z,8.73
2022-12-08T09:45:20.881Z,6.97
2022-12-08T09:48:07.438Z,7.80
2022-12-08T09:51:07.408Z,6.05
2022-12-08T09:53:51.379Z,6.63
2022-12-08T09:56:33.876Z,6.28
2022-12-08T09:59:11.790Z,8.02
2022-12-08T10:01:41.064Z,6.75
2022-12-08T10:04:27.617Z,6.55
2022-12-08T10:07:19.456Z,6.75
2022-12-08T10:13:07.620Z,6.80
2022-12-08T10:16:04.845Z,8.18
2022-12-08T10:18:35.028Z,7.80
2022-12-08T10:21:29.202Z,10.90
2022-12-08T10:24:04.814Z,10.80
2022-12-08T10:26:36.311Z,11.77
2022-12-08T10:29:09.260Z,9.88
2022-12-08T10:31:37.625Z,8.27
2022-12-08T10:34:20.865Z,8.88
2022-12-08T10:36:57.665Z,8.75
2022-12-08T10:39:35.106Z,8.48
2022-12-08T10:42:23.534Z,10.13
2022-12-08T10:45:25.103Z,8.68
2022-12-08T10:48:05.597Z,11.27
2022-12-08T10:50:45.451Z,11.32
2022-12-08T10:53:29.069Z,12.10
2022-12-08T10:56:03.308Z,12.20
2022-12-08T10:58:36.221Z,10.73
2022-12-08T11:01:14.097Z,9.85
2022-12-08T11:04:03.103Z,9.32
2022-12-08T11:06:41.317Z,9.82
2022-12-08T11:09:18.682Z,10.77
2022-12-08T11:11:50.177Z,8.02
2022-12-08T11:14:21.319Z,10.55
2022-12-08T11:17:08.978Z,8.88
2022-12-08T11:19:42.709Z,8.85
2022-12-08T11:22:33.886Z,7.25
2022-12-08T11:25:17.013Z,12.88
2022-12-08T11:27:48.920Z,9.05
2022-12-08T11:33:07.166Z,12.50
2022-12-08T11:35:42.367Z,8.90
2022-12-08T11:38:21.891Z,8.75
2022-12-08T11:41:25.361Z,10.23
2022-12-08T11:44:19.446Z,11.27
2022-12-08T11:46:56.376Z,11.60
2022-12-08T11:49:41.610Z,10.68
2022-12-08T11:52:22.362Z,9.38
2022-12-08T11:55:04.682Z,8.80
2022-12-08T11:57:40.257Z,8.52
2022-12-08T12:00:17.070Z,6.72
2022-12-08T12:02:51.208Z,9.80
2022-12-08T12:06:08.605Z,8.75
2022-12-08T12:08:36.756Z,7.03
2022-12-08T12:11:35.878Z,7.45
2022-12-08T12:14:35.789Z,6.90
2022-12-08T12:17:20.498Z,5.80
2022-12-08T12:19:50.112Z,7.38
2022-12-08T12:22:22.520Z,7.90
2022-12-08T12:24:52.876Z,6.30
2022-12-08T12:27:30.486Z,6.80
2022-12-08T12:30:02.358Z,7.60
2022-12-08T12:32:52.872Z,7.47
2022-12-08T12:35:44.421Z,6.68
2022-12-08T12:38:33.668Z,7.40
2022-12-08T12:41:04.967Z,8.40
2022-12-08T12:43:39.815Z,7.03
2022-12-08T12:46:26.406Z,11.77
2022-12-08T12:49:31.684Z,7.68
2022-12-08T12:51:59.970Z,8.25
2022-12-08T12:54:28.880Z,9.18
2022-12-08T12:57:14.013Z,7.22
2022-12-08T12:59:46.194Z,7.65
2022-12-08T13:02:39.178Z,11.85
2022-12-08T13:05:25.568Z,9.45
2022-12-08T13:08:23.611Z,15.80
2022-12-08T13:11:08.987Z,18.35
2022-12-08T13:13:40.693Z,12.63
2022-12-08T13:16:18.780Z,8.30
2022-12-08T13:18:53.038Z,10.20
2022-12-08T13:21:24.019Z,14.68
2022-12-08T13:24:12.218Z,13.87
2022-12-08T13:27:04.651Z,10.30
2022-12-08T13:29:37.203Z,7.60
2022-12-08T13:32:25.401Z,8.10
2022-12-08T13:34:58.525Z,10.20
2022-12-08T13:37:54.755Z,7.88
2022-12-08T13:40:30.066Z,9.70
2022-12-08T13:43:05.677Z,7.97
2022-12-08T13:56:24.274Z,14.20
2022-12-08T13:57:35.417Z,12.32
2022-12-08T14:00:08.113Z,10.55
2022-12-08T14:02:51.536Z,12.50
2022-12-08T14:05:40.548Z,11.30
2022-12-08T14:08:50.778Z,10.73
2022-12-08T14:11:22.986Z,8.80
2022-12-08T14:13:51.392Z,13.68
2022-12-08T14:16:56.781Z,7.75
2022-12-08T14:19:28.418Z,9.50
2022-12-08T14:22:02.019Z,9.00
2022-12-08T14:24:32.212Z,10.65
2022-12-08T14:27:03.116Z,9.10
2022-12-08T14:29:49.068Z,7.60
2022-12-08T14:32:34.833Z,12.35
2022-12-08T14:35:19.996Z,7.72
2022-12-08T14:37:50.520Z,7.00
2022-12-08T14:40:31.198Z,10.15
2022-12-08T14:43:08.932Z,6.15
2022-12-08T14:45:43.696Z,7.90
2022-12-08T14:48:33.360Z,8.85
2022-12-08T14:51:07.346Z,6.68
2022-12-08T14:53:44.141Z,7.45
2022-12-08T14:56:21.420Z,8.18
2022-12-08T14:59:12.828Z,4.93
2022-12-08T15:02:47.097Z,9.27
2022-12-08T15:05:20.855Z,11.45
2022-12-08T15:07:51.031Z,10.43
2022-12-08T15:10:23.497Z,11.07
2022-12-08T15:13:11.520Z,7.65
2022-12-08T15:15:52.398Z,6.88
2022-12-08T15:18:22.837Z,13.07
2022-12-08T15:20:57.673Z,8.63
2022-12-08T15:23:40.253Z,9.93
2022-12-08T15:26:09.065Z,8.20
2022-12-08T15:28:37.217Z,10.13
2022-12-08T15:31:05.508Z,10.27
2022-12-08T15:33:33.818Z,13.52
2022-12-08T15:36:02.081Z,11.23
2022-12-08T15:38:30.481Z,11.48
2022-12-08T15:40:59.049Z,19.05
2022-12-08T15:43:27.685Z,10.90
2022-12-08T15:45:59.933Z,10.82
2022-12-08T15:48:30.822Z,10.73
2022-12-08T15:51:00.359Z,15.02
2022-12-08T15:57:44.195Z,20.80
2022-12-08T16:00:50.484Z,29.70
2022-12-08T16:07:04.821Z,11.10
2022-12-08T16:09:29.353Z,12.48
2022-12-08T16:12:06.419Z,17.27
2022-12-08T16:17:25.082Z,9.38
2022-12-08T16:19:53.785Z,7.15
2022-12-08T16:22:54.100Z,7.18
2022-12-08T16:25:21.143Z,9.70
2022-12-08T16:28:36.972Z,13.80
2022-12-08T16:30:41.923Z,8.07
2022-12-08T16:33:12.418Z,10.85
2022-12-08T16:35:42.505Z,15.48
2022-12-08T16:38:15.508Z,15.77
2022-12-08T16:40:47.643Z,12.20
2022-12-08T16:43:15.960Z,11.68
2022-12-08T16:45:45.233Z,10.77
2022-12-08T16:48:15.402Z,14.70
2022-12-08T16:50:45.966Z,13.75
2022-12-08T16:53:14.378Z,9.55
2022-12-08T16:55:48.343Z,11.50
2022-12-08T16:58:17.330Z,9.95
2022-12-08T17:00:46.300Z,14.70
2022-12-08T17:03:16.623Z,8.85
2022-12-08T17:24:21.821Z,17.27
2022-12-08T17:26:50.360Z,12.45
2022-12-08T17:29:18.708Z,10.73
2022-12-08T17:31:47.152Z,12.68
2022-12-08T17:34:15.658Z,14.02
2022-12-08T17:36:44.151Z,15.25
2022-12-08T17:39:18.031Z,15.52
2022-12-08T17:41:47.698Z,16.38
2022-12-08T17:44:19.110Z,18.90
2022-12-08T17:46:52.518Z,16.55
2022-12-08T17:49:27.008Z,20.23
2022-12-08T17:51:57.090Z,17.48
2022-12-08T17:54:27.196Z,16.63
2022-12-08T17:56:56.034Z,11.20
2022-12-08T17:59:24.296Z,18.95
2022-12-08T18:01:56.660Z,18.30
2022-12-08T18:04:25.691Z,15.05
2022-12-08T18:06:54.001Z,14.88
2022-12-08T18:09:22.658Z,18.33
2022-12-08T18:11:51.767Z,15.30
2022-12-08T18:14:20.016Z,14.93
2022-12-08T18:16:48.796Z,18.40
2022-12-08T18:19:17.057Z,23.15
2022-12-08T18:21:45.642Z,20.83
2022-12-08T18:24:20.329Z,26.95
2022-12-08T18:26:49.686Z,21.95
2022-12-08T18:29:18.164Z,27.73
2022-12-08T18:31:46.433Z,29.80
2022-12-08T18:34:15.119Z,31.50
2022-12-08T18:36:43.226Z,27.55
2022-12-08T18:39:37.494Z,34.22
2022-12-08T18:42:05.918Z,36.92
2022-12-08T18:44:34.177Z,37.58
2022-12-08T18:47:02.261Z,26.13
2022-12-08T18:49:30.404Z,29.55
2022-12-08T18:51:58.807Z,19.88
2022-12-08T18:54:37.156Z,15.30
2022-12-08T18:57:15.500Z,20.45
2022-12-08T18:59:43.716Z,19.15
2022-12-08T19:02:13.617Z,14.88
2022-12-08T19:04:42.866Z,12.30
2022-12-08T19:07:12.452Z,13.70
2022-12-08T19:09:40.963Z,11.88
2022-12-08T19:12:09.132Z,16.40
2022-12-08T19:14:37.465Z,19.17
2022-12-08T19:17:06.215Z,26.80
2022-12-08T19:19:35.631Z,14.82
2022-12-08T19:22:04.475Z,13.93
2022-12-08T19:24:32.616Z,18.88
2022-12-08T19:27:01.250Z,27.10
2022-12-08T19:29:29.540Z,39.95
2022-12-08T19:31:57.945Z,37.03
2022-12-08T19:34:26.489Z,24.13
2022-12-08T19:36:55.139Z,45.42
2022-12-08T19:39:24.702Z,69.13
2022-12-08T19:41:52.925Z,54.90
2022-12-08T19:44:30.459Z,57.40
2022-12-08T19:46:58.927Z,37.80
2022-12-08T19:49:27.430Z,31.88
2022-12-08T19:51:55.735Z,30.88
2022-12-08T19:54:23.920Z,33.60
2022-12-08T19:56:52.216Z,19.38
2022-12-08T19:59:20.495Z,30.30
2022-12-08T20:01:48.998Z,44.08
2022-12-08T20:04:18.555Z,35.03
2022-12-08T20:06:46.732Z,38.65
2022-12-08T20:09:15.785Z,30.50
2022-12-08T20:11:44.216Z,28.10
2022-12-08T20:14:12.647Z,28.70
2022-12-08T20:16:41.045Z,40.60
2022-12-08T20:19:09.961Z,43.08
2022-12-08T20:21:39.529Z,67.35
2022-12-08T20:24:08.643Z,166.20
2022-12-08T20:26:37.114Z,68.10
2022-12-08T20:29:05.297Z,96.28
2022-12-08T20:31:34.247Z,113.05
2022-12-08T20:34:02.991Z,92.70
2022-12-08T20:36:31.213Z,56.40
2022-12-08T20:39:00.883Z,64.03
2022-12-08T20:41:29.331Z,63.80
2022-12-08T20:43:57.566Z,116.97
2022-12-08T20:46:25.831Z,49.22
2022-12-08T20:48:56.438Z,126.05
2022-12-08T20:51:30.060Z,215.82
2022-12-08T20:54:00.876Z,226.32
2022-12-08T20:56:29.347Z,96.95
2022-12-08T20:58:57.894Z,64.00
2022-12-08T21:01:26.928Z,48.50
2022-12-08T21:03:55.707Z,16.85
2022-12-08T21:06:25.673Z,16.33
2022-12-08T21:08:54.508Z,16.17
2022-12-08T21:11:22.784Z,12.07
2022-12-08T21:13:51.220Z,16.08
2022-12-08T21:16:19.618Z,13.38
2022-12-08T21:21:15.056Z,14.10
2022-12-08T21:23:44.186Z,15.93
2022-12-08T21:26:21.382Z,18.90
2022-12-08T21:28:49.745Z,22.92
2022-12-08T21:31:20.408Z,19.50
2022-12-08T21:33:49.661Z,21.83
2022-12-08T21:36:21.764Z,33.55
2022-12-08T21:38:50.361Z,33.30
2022-12-08T21:41:23.845Z,34.75
2022-12-08T21:43:52.272Z,24.83
2022-12-08T21:46:20.729Z,19.67
2022-12-08T21:48:49.210Z,19.15
2022-12-08T21:51:17.696Z,15.38
2022-12-08T21:53:46.288Z,13.23
2022-12-08T21:56:14.694Z,18.33
2022-12-08T21:58:43.049Z,33.03
2022-12-08T22:01:12.871Z,17.25
2022-12-08T22:03:41.936Z,12.48
2022-12-08T22:06:12.756Z,11.07
2022-12-08T22:08:41.767Z,10.38
2022-12-08T22:11:11.827Z,13.05
2022-12-08T22:13:42.420Z,17.65
2022-12-08T22:16:13.139Z,18.42
2022-12-08T22:18:41.846Z,17.77
2022-12-08T22:21:14.638Z,16.40
2022-12-08T22:23:43.671Z,17.92
2022-12-08T22:26:12.816Z,16.05
2022-12-08T22:28:42.479Z,16.67
2022-12-08T22:31:16.140Z,15.27
2022-12-08T22:33:44.431Z,19.20
2022-12-08T22:36:17.451Z,17.88
2022-12-08T22:38:46.053Z,23.15
2022-12-08T22:41:14.347Z,22.25
2022-12-08T22:43:43.371Z,20.15
2022-12-08T22:46:15.540Z,20.75
2022-12-08T22:48:44.515Z,23.83
2022-12-08T22:51:13.599Z,21.80
2022-12-08T22:53:42.118Z,18.25
2022-12-08T22:56:12.798Z,23.60
2022-12-08T22:58:42.281Z,53.17
2022-12-08T23:01:22.254Z,79.05
2022-12-08T23:03:50.935Z,78.18
2022-12-08T23:06:19.415Z,79.05
2022-12-08T23:08:48.345Z,88.72
2022-12-08T23:11:16.996Z,90.13
2022-12-08T23:13:45.376Z,84.68
2022-12-08T23:16:13.925Z,60.88
2022-12-08T23:18:43.577Z,41.08
2022-12-08T23:21:15.299Z,43.03
2022-12-08T23:23:43.934Z,30.45
2022-12-08T23:26:22.581Z,20.40
2022-12-08T23:28:51.126Z,18.92
2022-12-08T23:31:20.402Z,18.88
2022-12-08T23:33:49.535Z,26.55
2022-12-08T23:36:19.371Z,33.80
2022-12-08T23:38:47.682Z,51.42
2022-12-08T23:41:17.309Z,67.43
2022-12-08T23:43:47.927Z,67.38
2022-12-08T23:46:18.395Z,75.40
2022-12-08T23:48:47.349Z,77.78
2022-12-08T23:51:16.066Z,48.20
2022-12-08T23:53:44.945Z,25.98
2022-12-08T23:56:22.100Z,23.63
2022-12-08T23:58:52.964Z,19.05
